WEATHER/FLIGHT PLANNING

Hattiesburg Radar

 

 

 

 

Weather Links

Flight Planning Links

 

METAR

2019/07/22 04:53 KHBG 220453Z AUTO 00000KT 10SM CLR 24/22 A3000 RMK AO2 SLP155 T02390222

TAF

2019/07/22 06:24 TAF KHBG 220522Z 2206/2306 00000KT 6SM BR FEW090 FM220700 00000KT 4SM BR BKN007 FM221400 22003KT P6SM SCT035 FM222100 21004KT P6SM VCTS SCT050CB BKN250 FM230100 21004KT P6SM BKN090